METAR AND TAF INFORMATION
METAR FOR OIMM
ADDS - METARS form results

(0423 UTC 19 October 2018)
Data provider http://aviationweather.gov/metar/data/
 
METAR text: OIMM 190400Z 00000KT CAVOK 10/M02 Q1025 A3029
Conditions at: OIMM (MASHHAD (AFB/CIV, IR) observed 0400 UTC 19 October 2018
Temperature: 10.0°C (50°F)
Dewpoint: -2.0°C (28°F) [RH = 43%]
Pressure (altimeter): 30.27 inches Hg (1025.0 mb)
Winds: calm
Visibility: 6 or more miles (10+ km)
Ceiling: ceiling and visibility are OK
Clouds: unknown
Weather: no significant weather observed at this time

METAR text: OIMM 190330Z 00000KT CAVOK 10/M02 Q1025 A3028
Conditions at: OIMM (MASHHAD (AFB/CIV, IR) observed 0330 UTC 19 October 2018
Temperature: 10.0°C (50°F)
Dewpoint: -2.0°C (28°F) [RH = 43%]
Pressure (altimeter): 30.27 inches Hg (1025.0 mb)
Winds: calm
Visibility: 6 or more miles (10+ km)
Ceiling: ceiling and visibility are OK
Clouds: unknown
Weather: no significant weather observed at this time

Forecast for: OIMM (MASHHAD (AFB/CIV, IR)
Text: TAF OIMM 182345Z 1900/2006 12004MPS 8000 NSC
Forecast period: 0000 UTC 19 October 2018 to 0600 UTC 20 October 2018
Forecast type: FROM: standard forecast or significant change
Winds: from the ESE (120 degrees) at 9 MPH (8 knots; 4.1 m/s)
Visibility: 5 miles (8 km)
Ceiling: unknown
Clouds: missing
Weather: no significant weather forecast for this period

 AIRPORT MAP

 RUNWAY INFORMATION
Runway 13L Runway length 12503 ft Runway width 148 ft
Runway elevation 3226 ft Runway displaced threshold 0 ft Runway heading 134
Runway 31R Runway length 12503 ft Runway width 148 ft
Runway elevation 3257 ft Runway displaced threshold 0 ft Runway heading 314
Runway 13R Runway length 12877 ft Runway width 148 ft
Runway elevation 3231 ft Runway displaced threshold 0 ft Runway heading 134
Runway 31L Runway length 12877 ft Runway width 148 ft
Runway elevation 3263 ft Runway displaced threshold 0 ft Runway heading 314

 AIRPORT FREQUENCIES
Type APP Name APP Frequency 127.3 MHZ
Type ATIS Name ATIS Frequency 126.4 MHZ
Type TWR Name TWR Frequency 118.1 MHZ

 AIRPORT NEAR NAVIGATION AIDS
Type TACAN Name Mashhad Frequency 111900 KHZ
Type VOR-DME Name Mashhad Frequency 114000 KHZ
Type NDB Name Mashhad Frequency 385 KHZ



Copyright @ Zagros Virtual Airline